Wetterdaten: Freitag, 18.02.2011
Datum Zeit Temp. A. Feuchte A. Luftdruck Regen Wind Richtung Richtung Sonnenschein UV Solar Windben
18.02.2011 00:00 0,6 C 82 % 1010,7 hPa 0,0 mm 1,6 km/h (1 Bft) O-NO 67 0 min 0 UV-I 0 W/m 6,4 km/h (2 Bft)
18.02.2011 00:10 0,6 C 82 % 1011,0 hPa 0,0 mm 1,6 km/h (1 Bft) O-NO 67 0 min 0 UV-I 0 W/m 6,4 km/h (2 Bft)
18.02.2011 00:20 0,6 C 82 % 1011,1 hPa 0,0 mm 0,0 km/h (0 Bft) O-NO 67 0 min 0 UV-I 0 W/m 4,8 km/h (1 Bft)
18.02.2011 00:30 0,6 C 82 % 1011,1 hPa 0,0 mm 1,6 km/h (1 Bft) O-NO 67 0 min 0 UV-I 0 W/m 6,4 km/h (2 Bft)
18.02.2011 00:40 0,6 C 82 % 1011,0 hPa 0,0 mm 1,6 km/h (1 Bft) O-NO 67 0 min 0 UV-I 0 W/m 4,8 km/h (1 Bft)
18.02.2011 00:50 0,6 C 82 % 1011,0 hPa 0,0 mm 0,0 km/h (0 Bft) O 90 0 min 0 UV-I 0 W/m 6,4 km/h (2 Bft)
18.02.2011 01:00 0,6 C 82 % 1010,9 hPa 0,0 mm 1,6 km/h (1 Bft) O 90 0 min 0 UV-I 0 W/m 8,0 km/h (2 Bft)
18.02.2011 01:10 0,6 C 82 % 1011,0 hPa 0,0 mm 3,2 km/h (1 Bft) O-NO 67 0 min 0 UV-I 0 W/m 9,7 km/h (2 Bft)
18.02.2011 01:20 0,6 C 82 % 1011,1 hPa 0,0 mm 1,6 km/h (1 Bft) NO 45 0 min 0 UV-I 0 W/m 8,0 km/h (2 Bft)
18.02.2011 01:30 0,6 C 82 % 1011,3 hPa 0,0 mm 1,6 km/h (1 Bft) O-NO 67 0 min 0 UV-I 0 W/m 4,8 km/h (1 Bft)
18.02.2011 01:40 0,6 C 82 % 1011,3 hPa 0,0 mm 1,6 km/h (1 Bft) O 90 0 min 0 UV-I 0 W/m 8,0 km/h (2 Bft)
18.02.2011 01:50 0,6 C 82 % 1011,3 hPa 0,0 mm 1,6 km/h (1 Bft) O-NO 67 0 min 0 UV-I 0 W/m 8,0 km/h (2 Bft)
18.02.2011 02:00 0,6 C 82 % 1011,3 hPa 0,0 mm 1,6 km/h (1 Bft) O 90 0 min 0 UV-I 0 W/m 6,4 km/h (2 Bft)
18.02.2011 02:10 0,6 C 82 % 1011,4 hPa 0,0 mm 1,6 km/h (1 Bft) O-NO 67 0 min 0 UV-I 0 W/m 6,4 km/h (2 Bft)
18.02.2011 02:20 0,6 C 82 % 1011,5 hPa 0,0 mm 1,6 km/h (1 Bft) O-NO 67 0 min 0 UV-I 0 W/m 6,4 km/h (2 Bft)
18.02.2011 02:30 0,6 C 83 % 1011,7 hPa 0,0 mm 0,0 km/h (0 Bft) O 90 0 min 0 UV-I 0 W/m 4,8 km/h (1 Bft)
18.02.2011 02:40 0,6 C 83 % 1011,8 hPa 0,0 mm 1,6 km/h (1 Bft) O 90 0 min 0 UV-I 0 W/m 6,4 km/h (2 Bft)
18.02.2011 02:50 0,6 C 82 % 1011,7 hPa 0,0 mm 0,0 km/h (0 Bft) O-NO 67 0 min 0 UV-I 0 W/m 4,8 km/h (1 Bft)
18.02.2011 03:00 0,6 C 82 % 1011,7 hPa 0,0 mm 1,6 km/h (1 Bft) O 90 0 min 0 UV-I 0 W/m 6,4 km/h (2 Bft)
18.02.2011 03:10 0,6 C 83 % 1011,6 hPa 0,0 mm 1,6 km/h (1 Bft) O-NO 67 0 min 0 UV-I 0 W/m 4,8 km/h (1 Bft)
18.02.2011 03:20 0,6 C 83 % 1011,6 hPa 0,0 mm 1,6 km/h (1 Bft) O-NO 67 0 min 0 UV-I 0 W/m 6,4 km/h (2 Bft)
18.02.2011 03:30 0,6 C 83 % 1011,6 hPa 0,0 mm 1,6 km/h (1 Bft) NO 45 0 min 0 UV-I 0 W/m 8,0 km/h (2 Bft)
18.02.2011 03:40 0,5 C 83 % 1011,7 hPa 0,0 mm 3,2 km/h (1 Bft) O 90 0 min 0 UV-I 0 W/m 9,7 km/h (2 Bft)
18.02.2011 03:50 0,5 C 83 % 1011,7 hPa 0,0 mm 1,6 km/h (1 Bft) O-NO 67 0 min 0 UV-I 0 W/m 8,0 km/h (2 Bft)
18.02.2011 04:00 0,4 C 83 % 1011,7 hPa 0,0 mm 1,6 km/h (1 Bft) O 90 0 min 0 UV-I 0 W/m 6,4 km/h (2 Bft)
18.02.2011 04:10 0,4 C 83 % 1011,6 hPa 0,0 mm 1,6 km/h (1 Bft) O 90 0 min 0 UV-I 0 W/m 6,4 km/h (2 Bft)
18.02.2011 04:20 0,4 C 83 % 1011,7 hPa 0,0 mm 1,6 km/h (1 Bft) O-NO 67 0 min 0 UV-I 0 W/m 6,4 km/h (2 Bft)
18.02.2011 04:30 0,4 C 83 % 1011,8 hPa 0,0 mm 1,6 km/h (1 Bft) O-NO 67 0 min 0 UV-I 0 W/m 6,4 km/h (2 Bft)
18.02.2011 04:40 0,4 C 83 % 1011,8 hPa 0,0 mm 1,6 km/h (1 Bft) O 90 0 min 0 UV-I 0 W/m 8,0 km/h (2 Bft)
18.02.2011 04:50 0,4 C 83 % 1012,0 hPa 0,0 mm 3,2 km/h (1 Bft) O-NO 67 0 min 0 UV-I 0 W/m 8,0 km/h (2 Bft)
18.02.2011 05:00 0,4 C 83 % 1012,0 hPa 0,0 mm 3,2 km/h (1 Bft) O-NO 67 0 min 0 UV-I 0 W/m 6,4 km/h (2 Bft)
18.02.2011 05:10 0,4 C 83 % 1012,3 hPa 0,0 mm 1,6 km/h (1 Bft) O-NO 67 0 min 0 UV-I 0 W/m 8,0 km/h (2 Bft)
18.02.2011 05:20 0,3 C 83 % 1012,4 hPa 0,0 mm 1,6 km/h (1 Bft) O-NO 67 0 min 0 UV-I 0 W/m 6,4 km/h (2 Bft)
18.02.2011 05:30 0,3 C 83 % 1012,3 hPa 0,0 mm 1,6 km/h (1 Bft) O-NO 67 0 min 0 UV-I 0 W/m 4,8 km/h (1 Bft)
18.02.2011 05:40 0,3 C 83 % 1012,3 hPa 0,0 mm 3,2 km/h (1 Bft) O-NO 67 0 min 0 UV-I 0 W/m 8,0 km/h (2 Bft)
18.02.2011 05:50 0,3 C 83 % 1012,2 hPa 0,0 mm 3,2 km/h (1 Bft) O 90 0 min 0 UV-I 0 W/m 6,4 km/h (2 Bft)
18.02.2011 06:00 0,3 C 83 % 1012,4 hPa 0,0 mm 1,6 km/h (1 Bft) O-NO 67 0 min 0 UV-I 0 W/m 6,4 km/h (2 Bft)
18.02.2011 06:10 0,3 C 84 % 1012,4 hPa 0,0 mm 3,2 km/h (1 Bft) O 90 0 min 0 UV-I 0 W/m 9,7 km/h (2 Bft)
18.02.2011 06:20 0,4 C 84 % 1012,4 hPa 0,0 mm 3,2 km/h (1 Bft) O 90 0 min 0 UV-I 0 W/m 6,4 km/h (2 Bft)
18.02.2011 06:30 0,4 C 84 % 1012,4 hPa 0,0 mm 1,6 km/h (1 Bft) O-SO 112 0 min 0 UV-I 0 W/m 8,0 km/h (2 Bft)
18.02.2011 06:40 0,4 C 84 % 1012,6 hPa 0,0 mm 3,2 km/h (1 Bft) O-NO 67 0 min 0 UV-I 0 W/m 9,7 km/h (2 Bft)
18.02.2011 06:50 0,4 C 84 % 1012,7 hPa 0,0 mm 3,2 km/h (1 Bft) O 90 0 min 0 UV-I 0 W/m 11,3 km/h (2 Bft)
18.02.2011 07:00 0,4 C 84 % 1012,7 hPa 0,0 mm 3,2 km/h (1 Bft) O-NO 67 0 min 0 UV-I 0 W/m 11,3 km/h (2 Bft)
18.02.2011 07:10 0,4 C 84 % 1012,7 hPa 0,0 mm 1,6 km/h (1 Bft) O-NO 67 0 min 0 UV-I 0 W/m 6,4 km/h (2 Bft)
18.02.2011 07:20 0,4 C 84 % 1012,9 hPa 0,0 mm 3,2 km/h (1 Bft) O-NO 67 0 min 0 UV-I 0 W/m 8,0 km/h (2 Bft)
18.02.2011 07:30 0,4 C 84 % 1012,9 hPa 0,0 mm 1,6 km/h (1 Bft) O 90 0 min 0 UV-I 0 W/m 6,4 km/h (2 Bft)
18.02.2011 07:40 0,3 C 84 % 1013,0 hPa 0,0 mm 1,6 km/h (1 Bft) O-NO 67 0 min 0 UV-I 0 W/m 6,4 km/h (2 Bft)
18.02.2011 07:50 0,3 C 84 % 1013,1 hPa 0,0 mm 0,0 km/h (0 Bft) O 90 0 min 0 UV-I 0 W/m 4,8 km/h (1 Bft)
18.02.2011 08:00 0,3 C 84 % 1013,2 hPa 0,0 mm 0,3 km/h (0 Bft) O 80 0 min 0 UV-I 0 W/m 3,2 km/h (1 Bft)
18.02.2011 08:10 0,4 C 84 % 1013,6 hPa 0,0 mm 1,6 km/h (1 Bft) O-NO 67 0 min 0 UV-I 0 W/m 8,0 km/h (2 Bft)
18.02.2011 08:20 0,4 C 84 % 1013,7 hPa 0,0 mm 0,0 km/h (0 Bft) O-NO 67 0 min 0 UV-I 0 W/m 4,8 km/h (1 Bft)
18.02.2011 08:30 0,4 C 84 % 1013,9 hPa 0,0 mm 1,6 km/h (1 Bft) O 90 0 min 0 UV-I 5 W/m 6,4 km/h (2 Bft)
18.02.2011 08:40 0,4 C 84 % 1014,0 hPa 0,0 mm 1,6 km/h (1 Bft) O-NO 67 0 min 0 UV-I 7 W/m 6,4 km/h (2 Bft)
18.02.2011 08:50 0,4 C 84 % 1014,0 hPa 0,0 mm 1,6 km/h (1 Bft) O-NO 67 0 min 0 UV-I 11 W/m 6,4 km/h (2 Bft)
18.02.2011 09:00 0,4 C 84 % 1014,0 hPa 0,0 mm 1,6 km/h (1 Bft) NO 45 0 min 0 UV-I 16 W/m 6,4 km/h (2 Bft)
18.02.2011 09:10 0,4 C 84 % 1014,1 hPa 0,0 mm 1,6 km/h (1 Bft) O 90 0 min 0 UV-I 19 W/m 6,4 km/h (2 Bft)
18.02.2011 09:20 0,5 C 84 % 1014,2 hPa 0,0 mm 3,2 km/h (1 Bft) O-NO 67 0 min 0 UV-I 21 W/m 8,0 km/h (2 Bft)
18.02.2011 09:30 0,5 C 84 % 1014,3 hPa 0,0 mm 3,2 km/h (1 Bft) O-NO 67 0 min 0 UV-I 28 W/m 8,0 km/h (2 Bft)
18.02.2011 09:40 0,6 C 84 % 1014,4 hPa 0,0 mm 1,6 km/h (1 Bft) O 90 0 min 0 UV-I 32 W/m 8,0 km/h (2 Bft)
18.02.2011 09:50 0,6 C 84 % 1014,4 hPa 0,0 mm 1,6 km/h (1 Bft) O-NO 67 0 min 0 UV-I 39 W/m 6,4 km/h (2 Bft)
18.02.2011 10:00 0,6 C 84 % 1014,5 hPa 0,0 mm 3,2 km/h (1 Bft) O-SO 112 0 min 0 UV-I 42 W/m 8,0 km/h (2 Bft)
18.02.2011 10:10 0,7 C 84 % 1014,6 hPa 0,0 mm 1,6 km/h (1 Bft) O 90 0 min 0 UV-I 46 W/m 6,4 km/h (2 Bft)
18.02.2011 10:20 0,7 C 84 % 1014,8 hPa 0,0 mm 1,6 km/h (1 Bft) O 90 0 min 0 UV-I 42 W/m 6,4 km/h (2 Bft)
18.02.2011 10:30 0,8 C 84 % 1014,7 hPa 0,0 mm 1,6 km/h (1 Bft) O 90 0 min 0 UV-I 42 W/m 6,4 km/h (2 Bft)
18.02.2011 10:40 0,9 C 84 % 1014,8 hPa 0,0 mm 3,2 km/h (1 Bft) O 90 0 min 0 UV-I 58 W/m 6,4 km/h (2 Bft)
18.02.2011 10:50 0,9 C 84 % 1014,8 hPa 0,0 mm 3,2 km/h (1 Bft) O 90 0 min 0 UV-I 56 W/m 6,4 km/h (2 Bft)
18.02.2011 11:00 1,0 C 84 % 1015,0 hPa 0,0 mm 1,6 km/h (1 Bft) O 90 0 min 0 UV-I 49 W/m 8,0 km/h (2 Bft)
18.02.2011 11:10 1,1 C 83 % 1015,1 hPa 0,0 mm 1,6 km/h (1 Bft) O 90 0 min 0 UV-I 51 W/m 6,4 km/h (2 Bft)
18.02.2011 11:20 1,1 C 83 % 1015,1 hPa 0,0 mm 0,0 km/h (0 Bft) O 90 0 min 0 UV-I 60 W/m 4,8 km/h (1 Bft)
18.02.2011 11:30 1,2 C 83 % 1015,1 hPa 0,0 mm 1,6 km/h (1 Bft) O 90 0 min 0 UV-I 63 W/m 4,8 km/h (1 Bft)
18.02.2011 11:40 1,3 C 83 % 1015,1 hPa 0,0 mm 3,2 km/h (1 Bft) O 90 0 min 0 UV-I 63 W/m 6,4 km/h (2 Bft)
18.02.2011 11:50 1,3 C 83 % 1015,2 hPa 0,0 mm 1,6 km/h (1 Bft) O 90 0 min 0 UV-I 67 W/m 6,4 km/h (2 Bft)
18.02.2011 12:00 1,4 C 83 % 1015,3 hPa 0,0 mm 1,6 km/h (1 Bft) O 90 0 min 0 UV-I 67 W/m 6,4 km/h (2 Bft)
18.02.2011 12:10 1,4 C 83 % 1015,3 hPa 0,0 mm 1,6 km/h (1 Bft) O 90 0 min 0 UV-I 60 W/m 4,8 km/h (1 Bft)
18.02.2011 12:20 1,4 C 82 % 1015,3 hPa 0,0 mm 1,6 km/h (1 Bft) O 90 0 min 0 UV-I 58 W/m 6,4 km/h (2 Bft)
18.02.2011 12:30 1,5 C 82 % 1015,3 hPa 0,0 mm 1,6 km/h (1 Bft) N-NO 22 0 min 0 UV-I 58 W/m 6,4 km/h (2 Bft)
18.02.2011 12:40 1,5 C 82 % 1015,4 hPa 0,0 mm 1,6 km/h (1 Bft) N 360 0 min 0 UV-I 51 W/m 6,4 km/h (2 Bft)
18.02.2011 12:50 1,5 C 81 % 1015,4 hPa 0,0 mm 1,6 km/h (1 Bft) O-NO 67 0 min 0 UV-I 62 W/m 8,0 km/h (2 Bft)
18.02.2011 13:00 1,6 C 81 % 1015,5 hPa 0,0 mm 1,6 km/h (1 Bft) N-NW 337 0 min 0 UV-I 62 W/m 4,8 km/h (1 Bft)
18.02.2011 13:10 1,6 C 81 % 1015,5 hPa 0,0 mm 1,6 km/h (1 Bft) O-NO 67 0 min 0 UV-I 54 W/m 6,4 km/h (2 Bft)
18.02.2011 13:20 1,6 C 81 % 1015,4 hPa 0,0 mm 1,6 km/h (1 Bft) O-NO 67 0 min 0 UV-I 65 W/m 6,4 km/h (2 Bft)
18.02.2011 13:30 1,6 C 81 % 1015,4 hPa 0,0 mm 1,6 km/h (1 Bft) O 90 0 min 0 UV-I 65 W/m 6,4 km/h (2 Bft)
18.02.2011 13:40 1,7 C 81 % 1015,3 hPa 0,0 mm 1,6 km/h (1 Bft) O-NO 67 0 min 0 UV-I 62 W/m 6,4 km/h (2 Bft)
18.02.2011 13:50 1,7 C 81 % 1015,3 hPa 0,0 mm 1,6 km/h (1 Bft) O 90 0 min 0 UV-I 58 W/m 6,4 km/h (2 Bft)
18.02.2011 14:00 1,7 C 80 % 1015,3 hPa 0,0 mm 1,6 km/h (1 Bft) O 90 0 min 0 UV-I 54 W/m 6,4 km/h (2 Bft)
18.02.2011 14:10 1,7 C 80 % 1015,4 hPa 0,0 mm 1,6 km/h (1 Bft) O-NO 67 0 min 0 UV-I 56 W/m 8,0 km/h (2 Bft)
18.02.2011 14:20 1,7 C 80 % 1015,5 hPa 0,0 mm 1,6 km/h (1 Bft) O-NO 67 0 min 0 UV-I 54 W/m 4,8 km/h (1 Bft)
18.02.2011 14:30 1,7 C 80 % 1015,4 hPa 0,0 mm 1,6 km/h (1 Bft) O 90 0 min 0 UV-I 49 W/m 6,4 km/h (2 Bft)
18.02.2011 14:40 1,7 C 80 % 1015,5 hPa 0,0 mm 1,6 km/h (1 Bft) O 90 0 min 0 UV-I 47 W/m 6,4 km/h (2 Bft)
18.02.2011 14:50 1,7 C 80 % 1015,4 hPa 0,0 mm 1,6 km/h (1 Bft) O 90 0 min 0 UV-I 47 W/m 6,4 km/h (2 Bft)
18.02.2011 15:00 1,7 C 80 % 1015,4 hPa 0,0 mm 1,6 km/h (1 Bft) NO 45 0 min 0 UV-I 46 W/m 6,4 km/h (2 Bft)
18.02.2011 15:10 1,7 C 80 % 1015,5 hPa 0,0 mm 3,2 km/h (1 Bft) O 90 0 min 0 UV-I 47 W/m 8,0 km/h (2 Bft)
18.02.2011 15:20 1,7 C 80 % 1015,5 hPa 0,0 mm 3,2 km/h (1 Bft) O 90 0 min 0 UV-I 46 W/m 8,0 km/h (2 Bft)
18.02.2011 15:30 1,7 C 80 % 1015,5 hPa 0,0 mm 3,2 km/h (1 Bft) O 90 0 min 0 UV-I 40 W/m 9,7 km/h (2 Bft)
18.02.2011 15:40 1,6 C 80 % 1015,6 hPa 0,0 mm 1,6 km/h (1 Bft) O-NO 67 0 min 0 UV-I 37 W/m 4,8 km/h (1 Bft)
18.02.2011 15:50 1,6 C 80 % 1015,6 hPa 0,0 mm 1,6 km/h (1 Bft) O 90 0 min 0 UV-I 37 W/m 6,4 km/h (2 Bft)
18.02.2011 16:00 1,6 C 80 % 1015,5 hPa 0,0 mm 0,8 km/h (0 Bft) NO 54 0 min 0 UV-I 34 W/m 6,4 km/h (2 Bft)
18.02.2011 16:10 1,6 C 80 % 1015,6 hPa 0,0 mm 1,6 km/h (1 Bft) O 90 0 min 0 UV-I 35 W/m 6,4 km/h (2 Bft)
18.02.2011 16:20 1,6 C 81 % 1015,6 hPa 0,0 mm 3,2 km/h (1 Bft) O 90 0 min 0 UV-I 32 W/m 9,7 km/h (2 Bft)
18.02.2011 16:30 1,6 C 81 % 1015,6 hPa 0,0 mm 4,8 km/h (1 Bft) O 90 0 min 0 UV-I 26 W/m 11,3 km/h (2 Bft)
18.02.2011 16:40 1,4 C 80 % 1015,6 hPa 0,0 mm 3,2 km/h (1 Bft) O 90 0 min 0 UV-I 19 W/m 8,0 km/h (2 Bft)
18.02.2011 16:50 1,4 C 81 % 1015,7 hPa 0,0 mm 3,2 km/h (1 Bft) O 90 0 min 0 UV-I 18 W/m 8,0 km/h (2 Bft)
18.02.2011 17:00 1,4 C 81 % 1015,6 hPa 0,0 mm 3,2 km/h (1 Bft) O 90 0 min 0 UV-I 14 W/m 11,3 km/h (2 Bft)
18.02.2011 17:10 1,4 C 81 % 1015,7 hPa 0,0 mm 3,2 km/h (1 Bft) O 90 0 min 0 UV-I 11 W/m 9,7 km/h (2 Bft)
18.02.2011 17:20 1,3 C 81 % 1015,8 hPa 0,0 mm 4,8 km/h (1 Bft) O 90 0 min 0 UV-I 11 W/m 11,3 km/h (2 Bft)
18.02.2011 17:30 1,2 C 82 % 1015,8 hPa 0,0 mm 3,2 km/h (1 Bft) O 90 0 min 0 UV-I 5 W/m 11,3 km/h (2 Bft)
18.02.2011 17:40 1,2 C 82 % 1015,8 hPa 0,0 mm 3,2 km/h (1 Bft) O-NO 67 0 min 0 UV-I 0 W/m 9,7 km/h (2 Bft)
18.02.2011 17:50 1,1 C 82 % 1015,7 hPa 0,0 mm 1,6 km/h (1 Bft) O-NO 67 0 min 0 UV-I 0 W/m 6,4 km/h (2 Bft)
18.02.2011 18:00 1,1 C 82 % 1015,8 hPa 0,0 mm 1,6 km/h (1 Bft) O 90 0 min 0 UV-I 0 W/m 6,4 km/h (2 Bft)
18.02.2011 18:10 1,1 C 82 % 1016,0 hPa 0,0 mm 3,2 km/h (1 Bft) O-SO 112 0 min 0 UV-I 0 W/m 8,0 km/h (2 Bft)
18.02.2011 18:20 1,0 C 83 % 1016,1 hPa 0,0 mm 1,6 km/h (1 Bft) O 90 0 min 0 UV-I 0 W/m 8,0 km/h (2 Bft)
18.02.2011 18:30 1,0 C 83 % 1016,2 hPa 0,0 mm 0,0 km/h (0 Bft) O 90 0 min 0 UV-I 0 W/m 3,2 km/h (1 Bft)
18.02.2011 18:40 1,0 C 83 % 1016,4 hPa 0,0 mm 0,0 km/h (0 Bft) O 90 0 min 0 UV-I 0 W/m 4,8 km/h (1 Bft)
18.02.2011 18:50 1,0 C 83 % 1016,6 hPa 0,0 mm 1,6 km/h (1 Bft) NO 45 0 min 0 UV-I 0 W/m 4,8 km/h (1 Bft)
18.02.2011 19:00 0,9 C 83 % 1016,6 hPa 0,0 mm 1,6 km/h (1 Bft) O-NO 67 0 min 0 UV-I 0 W/m 8,0 km/h (2 Bft)
18.02.2011 19:10 0,9 C 83 % 1016,5 hPa 0,0 mm 1,6 km/h (1 Bft) O 90 0 min 0 UV-I 0 W/m 6,4 km/h (2 Bft)
18.02.2011 19:20 0,9 C 83 % 1016,5 hPa 0,0 mm 1,6 km/h (1 Bft) O 90 0 min 0 UV-I 0 W/m 6,4 km/h (2 Bft)
18.02.2011 19:30 0,9 C 83 % 1016,7 hPa 0,0 mm 1,6 km/h (1 Bft) O 90 0 min 0 UV-I 0 W/m 4,8 km/h (1 Bft)
18.02.2011 19:40 0,9 C 83 % 1016,9 hPa 0,0 mm 1,6 km/h (1 Bft) O-NO 67 0 min 0 UV-I 0 W/m 4,8 km/h (1 Bft)
18.02.2011 19:50 0,9 C 83 % 1017,0 hPa 0,0 mm 1,6 km/h (1 Bft) O 90 0 min 0 UV-I 0 W/m 4,8 km/h (1 Bft)
18.02.2011 20:00 0,8 C 83 % 1017,1 hPa 0,0 mm 0,0 km/h (0 Bft) O 90 0 min 0 UV-I 0 W/m 3,2 km/h (1 Bft)
18.02.2011 20:10 0,8 C 83 % 1017,0 hPa 0,0 mm 1,6 km/h (1 Bft) O 90 0 min 0 UV-I 0 W/m 4,8 km/h (1 Bft)
18.02.2011 20:20 0,8 C 83 % 1017,1 hPa 0,0 mm 0,0 km/h (0 Bft) O 90 0 min 0 UV-I 0 W/m 3,2 km/h (1 Bft)
18.02.2011 20:30 0,8 C 84 % 1017,2 hPa 0,0 mm 0,0 km/h (0 Bft) O-NO 67 0 min 0 UV-I 0 W/m 4,8 km/h (1 Bft)
18.02.2011 20:40 0,8 C 84 % 1017,2 hPa 0,0 mm 0,0 km/h (0 Bft) NO 45 0 min 0 UV-I 0 W/m 3,2 km/h (1 Bft)
18.02.2011 20:50 0,8 C 84 % 1017,0 hPa 0,0 mm 1,6 km/h (1 Bft) O-NO 67 0 min 0 UV-I 0 W/m 4,8 km/h (1 Bft)
18.02.2011 21:00 0,8 C 84 % 1017,0 hPa 0,0 mm 1,6 km/h (1 Bft) O-NO 67 0 min 0 UV-I 0 W/m 4,8 km/h (1 Bft)
18.02.2011 21:10 0,7 C 84 % 1016,9 hPa 0,0 mm 1,6 km/h (1 Bft) O-NO 67 0 min 0 UV-I 0 W/m 6,4 km/h (2 Bft)
18.02.2011 21:20 0,7 C 84 % 1017,0 hPa 0,0 mm 1,6 km/h (1 Bft) O-SO 112 0 min 0 UV-I 0 W/m 8,0 km/h (2 Bft)
18.02.2011 21:30 0,7 C 84 % 1017,0 hPa 0,0 mm 3,2 km/h (1 Bft) O 90 0 min 0 UV-I 0 W/m 11,3 km/h (2 Bft)
18.02.2011 21:40 0,7 C 84 % 1017,1 hPa 0,0 mm 1,6 km/h (1 Bft) O 90 0 min 0 UV-I 0 W/m 6,4 km/h (2 Bft)
18.02.2011 21:50 0,6 C 84 % 1017,2 hPa 0,0 mm 3,2 km/h (1 Bft) O 90 0 min 0 UV-I 0 W/m 8,0 km/h (2 Bft)
18.02.2011 22:00 0,6 C 84 % 1017,1 hPa 0,0 mm 3,2 km/h (1 Bft) O 90 0 min 0 UV-I 0 W/m 8,0 km/h (2 Bft)
18.02.2011 22:10 0,6 C 84 % 1017,1 hPa 0,0 mm 1,6 km/h (1 Bft) O-NO 67 0 min 0 UV-I 0 W/m 8,0 km/h (2 Bft)
18.02.2011 22:20 0,6 C 84 % 1017,3 hPa 0,0 mm 1,6 km/h (1 Bft) O-NO 67 0 min 0 UV-I 0 W/m 4,8 km/h (1 Bft)
18.02.2011 22:30 0,6 C 84 % 1017,4 hPa 0,0 mm 0,0 km/h (0 Bft) O 90 0 min 0 UV-I 0 W/m 4,8 km/h (1 Bft)
18.02.2011 22:40 0,5 C 84 % 1017,3 hPa 0,0 mm 3,2 km/h (1 Bft) O 90 0 min 0 UV-I 0 W/m 8,0 km/h (2 Bft)
18.02.2011 22:50 0,5 C 84 % 1017,2 hPa 0,0 mm 1,6 km/h (1 Bft) O 90 0 min 0 UV-I 0 W/m 6,4 km/h (2 Bft)
18.02.2011 23:00 0,5 C 84 % 1017,2 hPa 0,0 mm 4,8 km/h (1 Bft) O 90 0 min 0 UV-I 0 W/m 9,7 km/h (2 Bft)
18.02.2011 23:10 0,4 C 84 % 1017,1 hPa 0,0 mm 4,8 km/h (1 Bft) O 90 0 min 0 UV-I 0 W/m 11,3 km/h (2 Bft)
18.02.2011 23:20 0,4 C 84 % 1017,0 hPa 0,0 mm 4,8 km/h (1 Bft) O 90 0 min 0 UV-I 0 W/m 11,3 km/h (2 Bft)
18.02.2011 23:30 0,4 C 84 % 1017,0 hPa 0,0 mm 4,8 km/h (1 Bft) O 90 0 min 0 UV-I 0 W/m 11,3 km/h (2 Bft)
18.02.2011 23:40 0,4 C 85 % 1017,1 hPa 0,0 mm 3,2 km/h (1 Bft) O 90 0 min 0 UV-I 0 W/m 6,4 km/h (2 Bft)
18.02.2011 23:50 0,4 C 85 % 1017,2 hPa 0,0 mm 1,6 km/h (1 Bft) O 90 0 min 0 UV-I 0 W/m 8,0 km/h (2 Bft)
_ Min-Zeit 05:10 14:00 00:00 - 00:20 - - - - - 08:00
Minimum _ 0,3 C 80 % 1010,7 hPa - 0,0 km/h (0 Bft) - - - - - 3,2 km/h (1 Bft)
_ Max-Zeit 13:30 23:40 22:30 00:00 16:30 - - 00:00 00:00 11:50 06:50
Maximum _ 1,7 C 85 % 1017,4 hPa 0,0 mm 4,8 km/h
O (1 Bft)
- - 0 min 0 UV-I 67 W/m 11,3 km/h
NO (2 Bft)
Durchschnitt _ 0,8 C 83 % 1014,5 hPa #0,0 mm 1,9 km/h (1 Bft) O - #0 min. 0 UV-I 42 W/m 6,9 km/h (2 Bft)